Time;durP1;ratioP1;P1;durP2;ratioP2;P2;SDS_P1;SDS_P2;PMS_P1;PMS_P2;Temp;Humidity;BMP_temperature;BMP_pressure;BME280_temperature;BME280_humidity;BME280_pressure;Samples;Min_cycle;Max_cycle;Signal;HPM_P1;HPM_P2
2023/08/06 00:01:26;;;;;;;6.82;1.50;;;;;;;;;;5073466;28;20039;-83
2023/08/06 00:03:52;;;;;;;3.15;1.20;;;;;;;;;;5074619;28;20104;-83
2023/08/06 00:06:17;;;;;;;3.85;0.98;;;;;;;;;;5074547;28;20039;-83
2023/08/06 00:08:45;;;;;;;4.28;0.93;;;;;;;;;;5074349;28;20016;-83
2023/08/06 00:11:10;;;;;;;1.50;0.77;;;;;;;;;;5082502;28;20422;-83
2023/08/06 00:13:35;;;;;;;3.42;0.90;;;;;;;;;;5074111;28;20539;-83
2023/08/06 00:16:13;;;;;;;2.97;0.80;;;;;;;;;;5074236;28;20032;-83
2023/08/06 00:18:39;;;;;;;1.10;0.60;;;;;;;;;;5073919;28;20081;-83
2023/08/06 00:21:04;;;;;;;3.47;0.88;;;;;;;;;;5074113;28;20020;-82
2023/08/06 00:23:29;;;;;;;2.00;0.75;;;;;;;;;;5091130;28;20020;-83
2023/08/06 00:25:55;;;;;;;2.92;0.70;;;;;;;;;;5072492;28;20118;-83
2023/08/06 00:28:20;;;;;;;2.13;0.80;;;;;;;;;;5074581;28;20463;-83
2023/08/06 00:30:46;;;;;;;2.83;0.60;;;;;;;;;;5075235;28;20110;-83
2023/08/06 00:33:11;;;;;;;1.23;0.70;;;;;;;;;;5073289;28;20016;-83
2023/08/06 00:35:39;;;;;;;2.05;0.80;;;;;;;;;;5074364;28;20026;-83
2023/08/06 00:38:12;;;;;;;6.80;0.93;;;;;;;;;;5074643;28;20016;-83
2023/08/06 00:40:37;;;;;;;2.75;0.70;;;;;;;;;;5075350;28;20035;-84
2023/08/06 00:43:02;;;;;;;1.70;0.73;;;;;;;;;;5073842;28;20450;-84
2023/08/06 00:45:29;;;;;;;3.17;0.60;;;;;;;;;;5075022;28;20051;-84
2023/08/06 00:47:55;;;;;;;3.45;0.80;;;;;;;;;;5075196;28;20016;-84
2023/08/06 00:50:22;;;;;;;4.70;1.10;;;;;;;;;;5073567;28;20028;-84
2023/08/06 00:52:48;;;;;;;3.67;0.90;;;;;;;;;;5072872;28;20361;-84
2023/08/06 00:55:13;;;;;;;2.33;0.70;;;;;;;;;;5074402;28;20092;-84
2023/08/06 00:57:39;;;;;;;3.05;0.90;;;;;;;;;;5091333;28;20039;-84
2023/08/06 01:00:04;;;;;;;2.65;0.82;;;;;;;;;;5074218;28;20114;-84
2023/08/06 01:02:30;;;;;;;2.28;0.70;;;;;;;;;;5067725;28;20017;-84
2023/08/06 01:04:56;;;;;;;3.15;0.70;;;;;;;;;;5069792;28;20047;-83
2023/08/06 01:07:44;;;;;;;1.52;0.70;;;;;;;;;;5073910;28;20020;-84
2023/08/06 01:10:12;;;;;;;6.13;0.90;;;;;;;;;;5073521;28;20383;-84
2023/08/06 01:12:45;;;;;;;3.70;0.70;;;;;;;;;;5072796;28;20020;-84
2023/08/06 01:15:22;;;;;;;3.78;0.95;;;;;;;;;;5073634;28;20032;-84
2023/08/06 01:17:48;;;;;;;2.80;0.70;;;;;;;;;;5096119;28;20119;-84
2023/08/06 01:20:13;;;;;;;0.40;0.38;;;;;;;;;;5092563;28;20073;-83
2023/08/06 01:22:38;;;;;;;1.10;0.60;;;;;;;;;;5092920;28;20019;-83
2023/08/06 01:25:04;;;;;;;4.63;0.43;;;;;;;;;;5101563;28;20069;-84
2023/08/06 01:27:32;;;;;;;2.83;0.57;;;;;;;;;;5075504;28;20016;-83
2023/08/06 01:30:13;;;;;;;1.88;0.80;;;;;;;;;;5084517;28;20028;-83
2023/08/06 01:32:41;;;;;;;3.47;0.60;;;;;;;;;;5074774;28;20024;-83
2023/08/06 01:35:08;;;;;;;0.63;0.50;;;;;;;;;;5090301;28;20194;-84
2023/08/06 01:37:33;;;;;;;1.00;0.52;;;;;;;;;;5077361;28;20024;-83
2023/08/06 01:39:59;;;;;;;1.98;0.50;;;;;;;;;;5093844;28;20016;-84
2023/08/06 01:42:24;;;;;;;0.77;0.45;;;;;;;;;;5093782;28;20028;-83
2023/08/06 01:44:49;;;;;;;0.73;0.50;;;;;;;;;;5085289;28;20024;-83
2023/08/06 01:47:14;;;;;;;0.88;0.55;;;;;;;;;;5069106;28;20012;-83
2023/08/06 01:49:40;;;;;;;3.08;0.73;;;;;;;;;;5115553;28;20020;-83
2023/08/06 01:52:05;;;;;;;6.78;0.40;;;;;;;;;;5093427;28;20502;-83
2023/08/06 01:54:31;;;;;;;1.13;0.60;;;;;;;;;;5081509;28;20016;-83
2023/08/06 01:56:58;;;;;;;1.95;0.50;;;;;;;;;;5078394;28;20093;-84
2023/08/06 01:59:23;;;;;;;0.47;0.38;;;;;;;;;;5097209;28;20020;-84
2023/08/06 02:01:48;;;;;;;5.55;0.50;;;;;;;;;;5097348;28;20026;-84
2023/08/06 02:04:14;;;;;;;1.55;0.60;;;;;;;;;;5114586;28;20016;-83
2023/08/06 02:06:41;;;;;;;0.40;0.40;;;;;;;;;;5089371;28;20080;-84
2023/08/06 02:09:09;;;;;;;0.80;0.40;;;;;;;;;;5097844;28;20051;-84
2023/08/06 02:11:37;;;;;;;1.23;0.40;;;;;;;;;;5087476;28;20047;-84
2023/08/06 02:14:02;;;;;;;0.65;0.52;;;;;;;;;;5096139;28;20020;-84
2023/08/06 02:16:27;;;;;;;1.83;0.45;;;;;;;;;;5084757;28;20047;-84
2023/08/06 02:18:53;;;;;;;0.50;0.40;;;;;;;;;;5097374;28;20673;-83
2023/08/06 02:21:21;;;;;;;0.82;0.45;;;;;;;;;;5087880;28;20020;-84
2023/08/06 02:23:46;;;;;;;1.98;0.68;;;;;;;;;;5080885;28;20024;-84
2023/08/06 02:26:12;;;;;;;1.88;0.70;;;;;;;;;;5083947;28;20034;-83
2023/08/06 02:28:37;;;;;;;1.40;0.60;;;;;;;;;;5096795;28;20363;-84
2023/08/06 02:31:02;;;;;;;1.38;0.63;;;;;;;;;;5079199;28;20042;-84
2023/08/06 02:33:28;;;;;;;2.17;0.57;;;;;;;;;;5076035;28;20047;-84
2023/08/06 02:36:01;;;;;;;1.02;0.60;;;;;;;;;;5085199;28;20032;-83
2023/08/06 02:38:28;;;;;;;2.05;0.70;;;;;;;;;;5087869;28;20008;-84
2023/08/06 02:40:56;;;;;;;1.63;0.80;;;;;;;;;;5095085;28;20114;-83
2023/08/06 02:43:21;;;;;;;0.68;0.60;;;;;;;;;;5087567;28;20012;-83
2023/08/06 02:45:47;;;;;;;2.00;0.70;;;;;;;;;;5093427;28;20027;-84
2023/08/06 02:48:12;;;;;;;0.90;0.75;;;;;;;;;;5092084;28;20055;-83
2023/08/06 02:50:41;;;;;;;2.20;0.85;;;;;;;;;;5095513;28;20486;-83
2023/08/06 02:53:07;;;;;;;7.05;0.60;;;;;;;;;;5074547;28;20017;-83
2023/08/06 02:55:33;;;;;;;3.42;0.70;;;;;;;;;;5095707;28;20039;-83
2023/08/06 02:57:59;;;;;;;1.27;0.88;;;;;;;;;;5095725;28;20020;-84
2023/08/06 03:00:24;;;;;;;1.67;0.80;;;;;;;;;;5099684;28;20042;-83
2023/08/06 03:02:49;;;;;;;1.92;0.90;;;;;;;;;;5089430;28;20020;-84
2023/08/06 03:05:17;;;;;;;0.73;0.60;;;;;;;;;;5095941;28;20019;-84
2023/08/06 03:07:42;;;;;;;1.30;0.90;;;;;;;;;;5085903;28;20051;-84
2023/08/06 03:10:08;;;;;;;1.02;0.68;;;;;;;;;;5114037;28;20051;-83
2023/08/06 03:12:35;;;;;;;1.88;0.98;;;;;;;;;;5084526;28;20088;-84
2023/08/06 03:15:01;;;;;;;2.72;0.80;;;;;;;;;;5095551;28;20110;-84
2023/08/06 03:17:26;;;;;;;3.45;0.80;;;;;;;;;;5093703;28;20490;-83
2023/08/06 03:19:51;;;;;;;2.35;1.00;;;;;;;;;;5086413;28;20023;-83
2023/08/06 03:22:16;;;;;;;1.92;1.05;;;;;;;;;;5091898;28;20015;-83
2023/08/06 03:24:42;;;;;;;1.55;0.90;;;;;;;;;;5084822;28;20131;-83
2023/08/06 03:27:09;;;;;;;2.47;1.00;;;;;;;;;;5081848;28;20097;-83
2023/08/06 03:29:35;;;;;;;2.85;1.00;;;;;;;;;;5096117;28;20110;-83
2023/08/06 03:32:00;;;;;;;1.10;0.88;;;;;;;;;;5083605;28;20096;-84
2023/08/06 03:34:26;;;;;;;2.10;1.00;;;;;;;;;;5095188;28;20004;-83
2023/08/06 03:36:51;;;;;;;1.52;1.10;;;;;;;;;;5085068;28;20052;-84
2023/08/06 03:39:16;;;;;;;1.50;0.80;;;;;;;;;;5092764;28;20463;-84
2023/08/06 03:41:41;;;;;;;3.42;1.20;;;;;;;;;;5096536;28;20016;-84
2023/08/06 03:44:09;;;;;;;3.28;1.02;;;;;;;;;;5094608;28;20023;-84
2023/08/06 03:46:34;;;;;;;3.40;1.13;;;;;;;;;;5092237;28;20403;-84
2023/08/06 03:49:00;;;;;;;1.95;0.93;;;;;;;;;;5075027;28;20020;-84
2023/08/06 03:51:26;;;;;;;5.35;0.90;;;;;;;;;;5089636;28;20020;-83
2023/08/06 03:53:51;;;;;;;1.98;0.80;;;;;;;;;;5081402;28;20026;-83
2023/08/06 03:56:16;;;;;;;4.93;1.10;;;;;;;;;;5085421;28;20016;-82
2023/08/06 03:58:42;;;;;;;2.40;0.93;;;;;;;;;;5077913;28;20457;-83
2023/08/06 04:01:07;;;;;;;5.43;1.27;;;;;;;;;;5105469;28;20028;-83
2023/08/06 04:03:32;;;;;;;1.90;0.95;;;;;;;;;;5075223;28;20056;-83
2023/08/06 04:06:04;;;;;;;3.15;1.42;;;;;;;;;;5086668;28;20428;-83
2023/08/06 04:08:29;;;;;;;1.92;0.90;;;;;;;;;;5088378;28;20038;-84
2023/08/06 04:10:54;;;;;;;2.83;1.23;;;;;;;;;;5094684;28;20114;-84
2023/08/06 04:13:20;;;;;;;1.60;0.95;;;;;;;;;;5113008;28;20451;-84
2023/08/06 04:15:45;;;;;;;1.50;0.98;;;;;;;;;;5082529;28;20097;-84
2023/08/06 04:18:10;;;;;;;5.43;1.25;;;;;;;;;;5084253;28;20031;-83
2023/08/06 04:20:44;;;;;;;2.95;1.00;;;;;;;;;;5084719;28;20031;-83
2023/08/06 04:23:09;;;;;;;1.88;1.10;;;;;;;;;;5084383;28;20475;-84
2023/08/06 04:25:35;;;;;;;5.82;1.30;;;;;;;;;;5086263;28;20035;-83
2023/08/06 04:28:00;;;;;;;2.40;1.00;;;;;;;;;;5087138;28;20024;-83
2023/08/06 04:30:25;;;;;;;2.72;1.00;;;;;;;;;;5087946;28;20032;-82
2023/08/06 04:32:51;;;;;;;2.60;0.90;;;;;;;;;;5074773;28;20034;-84
2023/08/06 04:35:16;;;;;;;1.67;0.98;;;;;;;;;;5079443;28;20047;-84
2023/08/06 04:37:41;;;;;;;2.08;0.90;;;;;;;;;;5091961;28;20334;-84
2023/08/06 04:40:07;;;;;;;3.08;0.98;;;;;;;;;;5085373;28;20032;-83
2023/08/06 04:42:32;;;;;;;2.05;1.20;;;;;;;;;;5092274;28;20101;-83
2023/08/06 04:44:58;;;;;;;1.77;1.13;;;;;;;;;;5090846;28;20051;-83
2023/08/06 04:47:23;;;;;;;1.67;0.98;;;;;;;;;;5083613;28;20027;-84
2023/08/06 04:49:48;;;;;;;1.30;0.88;;;;;;;;;;5094687;28;20034;-84
2023/08/06 04:52:14;;;;;;;1.65;1.00;;;;;;;;;;5090772;28;20017;-84
2023/08/06 04:54:39;;;;;;;1.45;0.90;;;;;;;;;;5074670;28;20035;-84
2023/08/06 04:57:04;;;;;;;1.00;0.73;;;;;;;;;;5080802;28;20016;-84
2023/08/06 04:59:30;;;;;;;1.80;1.10;;;;;;;;;;5076123;28;20359;-84
2023/08/06 05:01:55;;;;;;;2.50;1.55;;;;;;;;;;5074772;28;20123;-84
2023/08/06 05:04:20;;;;;;;2.28;1.40;;;;;;;;;;5083417;28;20055;-84
2023/08/06 05:06:46;;;;;;;2.67;1.38;;;;;;;;;;5091511;28;20073;-83
2023/08/06 05:09:11;;;;;;;2.90;1.67;;;;;;;;;;5094435;28;20043;-83
2023/08/06 05:11:39;;;;;;;2.22;1.40;;;;;;;;;;5094506;28;20027;-83
2023/08/06 05:14:04;;;;;;;5.32;1.75;;;;;;;;;;5094875;28;20134;-84
2023/08/06 05:16:29;;;;;;;3.13;1.63;;;;;;;;;;5089526;28;20058;-83
2023/08/06 05:18:58;;;;;;;4.82;1.85;;;;;;;;;;5079012;28;20068;-84
2023/08/06 05:21:23;;;;;;;3.88;2.30;;;;;;;;;;5107020;28;20551;-83
2023/08/06 05:23:51;;;;;;;4.70;2.63;;;;;;;;;;5099425;28;20503;-83
2023/08/06 05:26:18;;;;;;;4.10;2.20;;;;;;;;;;5103736;28;20404;-83
2023/08/06 05:28:44;;;;;;;5.05;2.83;;;;;;;;;;5082837;28;20448;-83
2023/08/06 05:31:09;;;;;;;3.80;2.08;;;;;;;;;;5077587;28;20023;-83
2023/08/06 05:33:34;;;;;;;2.72;1.27;;;;;;;;;;5089243;28;20020;-83
2023/08/06 05:35:59;;;;;;;2.70;1.08;;;;;;;;;;5094322;28;20020;-83
2023/08/06 05:38:25;;;;;;;1.48;0.80;;;;;;;;;;5079307;28;20345;-83
2023/08/06 05:40:50;;;;;;;1.40;0.60;;;;;;;;;;5092746;28;20133;-84
2023/08/06 05:43:16;;;;;;;1.85;1.02;;;;;;;;;;5091277;28;20027;-83
2023/08/06 05:45:44;;;;;;;3.28;1.20;;;;;;;;;;5081049;28;20023;-84
2023/08/06 05:48:09;;;;;;;2.50;1.20;;;;;;;;;;5085186;28;20031;-83
2023/08/06 05:50:34;;;;;;;2.22;0.75;;;;;;;;;;5097476;28;20035;-83
2023/08/06 05:53:00;;;;;;;2.40;1.20;;;;;;;;;;5086124;28;20020;-84
2023/08/06 05:55:28;;;;;;;4.28;1.70;;;;;;;;;;5092530;28;20569;-83
2023/08/06 05:57:54;;;;;;;3.83;1.38;;;;;;;;;;5076245;28;20451;-84
2023/08/06 06:00:20;;;;;;;5.85;1.98;;;;;;;;;;5093252;28;20024;-83
2023/08/06 06:02:45;;;;;;;4.07;2.22;;;;;;;;;;5090521;28;20138;-82
2023/08/06 06:05:11;;;;;;;6.78;2.50;;;;;;;;;;5095772;28;20024;-83
2023/08/06 06:07:36;;;;;;;5.95;2.75;;;;;;;;;;5075896;28;20023;-82
2023/08/06 06:10:01;;;;;;;7.18;3.35;;;;;;;;;;5077913;28;20040;-83
2023/08/06 06:12:30;;;;;;;7.32;3.28;;;;;;;;;;5082832;28;20026;-82
2023/08/06 06:14:55;;;;;;;5.55;2.83;;;;;;;;;;5085421;28;20028;-82
2023/08/06 06:17:21;;;;;;;7.00;3.30;;;;;;;;;;5083145;28;20015;-83
2023/08/06 06:19:47;;;;;;;5.57;2.72;;;;;;;;;;5087096;28;20046;-83
2023/08/06 06:22:12;;;;;;;6.50;3.83;;;;;;;;;;5082511;28;20031;-83
2023/08/06 06:24:40;;;;;;;5.03;2.45;;;;;;;;;;5097648;28;20023;-83
2023/08/06 06:27:06;;;;;;;5.38;2.33;;;;;;;;;;5097380;28;20026;-83
2023/08/06 06:29:34;;;;;;;4.20;2.20;;;;;;;;;;5088848;28;20028;-83
2023/08/06 06:31:59;;;;;;;3.17;1.50;;;;;;;;;;5077661;28;20470;-83
2023/08/06 06:34:25;;;;;;;4.78;1.83;;;;;;;;;;5085206;28;20015;-83
2023/08/06 06:36:50;;;;;;;5.75;1.60;;;;;;;;;;5098792;28;20024;-83
2023/08/06 06:39:15;;;;;;;4.45;1.83;;;;;;;;;;5077421;28;20039;-83
2023/08/06 06:41:41;;;;;;;6.40;1.75;;;;;;;;;;5106425;28;20019;-82
2023/08/06 06:44:06;;;;;;;0.77;0.40;;;;;;;;;;5096234;28;20020;-83
2023/08/06 06:46:31;;;;;;;4.13;0.98;;;;;;;;;;5096191;28;20019;-83
2023/08/06 06:48:57;;;;;;;4.70;1.30;;;;;;;;;;5092230;28;20023;-83
2023/08/06 06:51:22;;;;;;;5.22;1.25;;;;;;;;;;5089903;28;20038;-82
2023/08/06 06:53:49;;;;;;;3.00;1.02;;;;;;;;;;5077906;28;20015;-83
2023/08/06 06:56:15;;;;;;;5.35;1.30;;;;;;;;;;5088066;28;20027;-83
2023/08/06 06:58:40;;;;;;;4.85;1.40;;;;;;;;;;5077618;28;20391;-82
2023/08/06 07:01:06;;;;;;;4.72;1.33;;;;;;;;;;5076955;28;20463;-83
2023/08/06 07:03:31;;;;;;;4.35;1.48;;;;;;;;;;5091806;28;20053;-82
2023/08/06 07:06:00;;;;;;;4.07;1.25;;;;;;;;;;5105927;28;20516;-83
2023/08/06 07:08:25;;;;;;;2.58;0.55;;;;;;;;;;5108156;28;20106;-83
2023/08/06 07:10:50;;;;;;;2.72;1.10;;;;;;;;;;5091164;28;20441;-83
2023/08/06 07:13:16;;;;;;;3.67;1.15;;;;;;;;;;5075029;28;20119;-82
2023/08/06 07:15:41;;;;;;;3.60;0.98;;;;;;;;;;5077543;28;20027;-83
2023/08/06 07:18:10;;;;;;;7.95;1.70;;;;;;;;;;5077877;28;20020;-83
2023/08/06 07:20:35;;;;;;;4.60;1.52;;;;;;;;;;5077706;28;20035;-83
2023/08/06 07:23:01;;;;;;;2.28;1.20;;;;;;;;;;5077156;28;20031;-84
2023/08/06 07:25:26;;;;;;;3.60;1.58;;;;;;;;;;5078119;28;20020;-83
2023/08/06 07:27:51;;;;;;;5.10;1.60;;;;;;;;;;5084052;28;20112;-83
2023/08/06 07:30:17;;;;;;;4.32;1.55;;;;;;;;;;5094679;28;20046;-83
2023/08/06 07:32:42;;;;;;;10.57;1.60;;;;;;;;;;5080978;28;20035;-83
2023/08/06 07:35:12;;;;;;;4.25;1.55;;;;;;;;;;5107941;28;20092;-82
2023/08/06 07:37:37;;;;;;;6.13;1.70;;;;;;;;;;5078393;28;20076;-83
2023/08/06 07:40:04;;;;;;;5.82;1.27;;;;;;;;;;5086536;28;20115;-83
2023/08/06 07:42:29;;;;;;;3.70;1.70;;;;;;;;;;5077146;28;20453;-83
2023/08/06 07:44:55;;;;;;;5.35;1.50;;;;;;;;;;5092719;28;20043;-83
2023/08/06 07:47:21;;;;;;;4.22;1.70;;;;;;;;;;5101809;28;20034;-83
2023/08/06 07:49:46;;;;;;;5.13;1.63;;;;;;;;;;5094781;28;20031;-83
2023/08/06 07:52:12;;;;;;;7.18;1.80;;;;;;;;;;5075220;28;20024;-83
2023/08/06 07:54:37;;;;;;;5.40;1.92;;;;;;;;;;5075238;28;20024;-83
2023/08/06 07:57:03;;;;;;;4.78;1.30;;;;;;;;;;5094580;28;20086;-83
2023/08/06 07:59:28;;;;;;;4.00;1.30;;;;;;;;;;5084354;28;20042;-83
2023/08/06 08:01:54;;;;;;;6.35;1.13;;;;;;;;;;5077742;28;20036;-83
2023/08/06 08:04:20;;;;;;;3.08;1.00;;;;;;;;;;5074702;28;20058;-82
2023/08/06 08:06:46;;;;;;;6.38;1.35;;;;;;;;;;5082081;28;20035;-83
2023/08/06 08:09:14;;;;;;;2.47;1.17;;;;;;;;;;5088778;28;20019;-82
2023/08/06 08:11:40;;;;;;;3.35;1.10;;;;;;;;;;5105051;28;20050;-83
2023/08/06 08:14:06;;;;;;;3.92;1.20;;;;;;;;;;5094518;28;20069;-83
2023/08/06 08:16:32;;;;;;;3.35;1.30;;;;;;;;;;5083146;28;20122;-84
2023/08/06 08:18:57;;;;;;;7.70;1.33;;;;;;;;;;5073595;28;20028;-83
2023/08/06 08:21:24;;;;;;;6.45;1.38;;;;;;;;;;5073882;28;20058;-83
2023/08/06 08:23:49;;;;;;;5.72;0.85;;;;;;;;;;5077912;28;20032;-83
2023/08/06 08:26:14;;;;;;;6.70;1.30;;;;;;;;;;5085896;28;20020;-83
2023/08/06 08:28:40;;;;;;;5.15;1.13;;;;;;;;;;5063694;28;20071;-83
2023/08/06 08:31:11;;;;;;;9.15;1.15;;;;;;;;;;5076261;28;20035;-83
2023/08/06 08:33:36;;;;;;;5.18;1.00;;;;;;;;;;5075476;28;20016;-83
2023/08/06 08:36:02;;;;;;;5.07;1.02;;;;;;;;;;5078574;28;20065;-83
2023/08/06 08:38:27;;;;;;;3.45;0.85;;;;;;;;;;5094192;28;20348;-82
2023/08/06 08:40:56;;;;;;;3.60;1.00;;;;;;;;;;5078192;28;20429;-83
2023/08/06 08:43:22;;;;;;;7.72;1.10;;;;;;;;;;5099478;28;20090;-81
2023/08/06 08:45:50;;;;;;;7.15;1.38;;;;;;;;;;5089739;28;20084;-82
2023/08/06 08:48:16;;;;;;;6.85;0.90;;;;;;;;;;5093557;28;20033;-82
2023/08/06 08:50:43;;;;;;;7.15;1.02;;;;;;;;;;5090357;28;20475;-83
2023/08/06 08:53:09;;;;;;;4.03;0.68;;;;;;;;;;5063098;28;20115;-82
2023/08/06 08:55:34;;;;;;;5.60;1.00;;;;;;;;;;5093635;28;20401;-83
2023/08/06 08:58:00;;;;;;;4.65;0.98;;;;;;;;;;5083155;28;20032;-83
2023/08/06 09:00:25;;;;;;;2.97;0.70;;;;;;;;;;5083081;28;20069;-83
2023/08/06 09:02:51;;;;;;;6.22;0.90;;;;;;;;;;5094972;28;20581;-82
2023/08/06 09:05:18;;;;;;;9.60;1.05;;;;;;;;;;5081107;28;20027;-83
2023/08/06 09:07:46;;;;;;;9.77;0.85;;;;;;;;;;5076389;28;20514;-86
2023/08/06 09:10:13;;;;;;;6.38;0.73;;;;;;;;;;5094162;28;20515;-86
2023/08/06 09:12:39;;;;;;;2.75;0.73;;;;;;;;;;5082690;28;20040;-86
2023/08/06 09:15:05;;;;;;;5.53;0.55;;;;;;;;;;5074303;28;20119;-82
2023/08/06 09:17:30;;;;;;;4.10;0.98;;;;;;;;;;5080760;28;20513;-82
2023/08/06 09:19:59;;;;;;;4.40;1.00;;;;;;;;;;5080756;28;20024;-82
2023/08/06 09:22:33;;;;;;;4.57;0.57;;;;;;;;;;5078000;28;20030;-83
2023/08/06 09:24:58;;;;;;;7.32;1.30;;;;;;;;;;5089035;28;20060;-83
2023/08/06 09:27:24;;;;;;;2.78;0.70;;;;;;;;;;5076687;28;20024;-83
2023/08/06 09:29:49;;;;;;;3.10;0.65;;;;;;;;;;5089543;28;20446;-83
2023/08/06 09:32:15;;;;;;;6.80;0.82;;;;;;;;;;5088375;28;20027;-83
2023/08/06 09:34:42;;;;;;;4.82;0.80;;;;;;;;;;5109040;28;20020;-83
2023/08/06 09:37:09;;;;;;;2.88;0.77;;;;;;;;;;5078754;28;20027;-82
2023/08/06 09:39:34;;;;;;;7.35;0.80;;;;;;;;;;5070990;28;20067;-83
2023/08/06 09:42:01;;;;;;;3.83;0.80;;;;;;;;;;5090848;28;20027;-83
2023/08/06 09:44:27;;;;;;;5.10;0.90;;;;;;;;;;5104630;28;20031;-83
2023/08/06 09:46:53;;;;;;;5.75;0.70;;;;;;;;;;5096767;28;20077;-83
2023/08/06 09:49:19;;;;;;;6.00;0.90;;;;;;;;;;5083974;28;20417;-83
2023/08/06 09:51:46;;;;;;;6.40;1.40;;;;;;;;;;5078572;28;20031;-83
2023/08/06 09:54:15;;;;;;;1.83;0.75;;;;;;;;;;5069550;28;20424;-83
2023/08/06 09:56:41;;;;;;;2.88;0.60;;;;;;;;;;5088391;28;20024;-83
2023/08/06 09:59:07;;;;;;;7.15;0.70;;;;;;;;;;5093183;28;20431;-82
2023/08/06 10:01:33;;;;;;;5.00;0.70;;;;;;;;;;5081087;28;20111;-83
2023/08/06 10:04:00;;;;;;;6.05;0.88;;;;;;;;;;5082777;28;20055;-82
2023/08/06 10:06:26;;;;;;;3.25;0.73;;;;;;;;;;5083398;28;20032;-83
2023/08/06 10:08:51;;;;;;;6.72;1.40;;;;;;;;;;5079908;28;20028;-83
2023/08/06 10:11:17;;;;;;;3.30;1.02;;;;;;;;;;5076719;28;20093;-83
2023/08/06 10:13:42;;;;;;;3.40;0.70;;;;;;;;;;5109835;28;20028;-83
2023/08/06 10:16:08;;;;;;;6.60;0.70;;;;;;;;;;5087945;28;20054;-83
2023/08/06 10:18:35;;;;;;;3.90;0.68;;;;;;;;;;5076895;28;20204;-83
2023/08/06 10:21:00;;;;;;;8.50;1.38;;;;;;;;;;5094455;28;20466;-82
2023/08/06 10:23:38;;;;;;;5.57;0.57;;;;;;;;;;5088104;28;20160;-82
2023/08/06 10:26:03;;;;;;;2.55;0.80;;;;;;;;;;5100111;28;20023;-82
2023/08/06 10:28:36;;;;;;;1.95;0.60;;;;;;;;;;5087803;28;20054;-83
2023/08/06 10:31:01;;;;;;;1.98;0.52;;;;;;;;;;5087311;28;20023;-83
2023/08/06 10:33:40;;;;;;;1.77;0.70;;;;;;;;;;5084341;28;20112;-83
2023/08/06 10:36:09;;;;;;;5.70;1.00;;;;;;;;;;5094866;28;20098;-83
2023/08/06 10:38:36;;;;;;;3.80;0.90;;;;;;;;;;5087274;28;20020;-83
2023/08/06 10:41:03;;;;;;;4.97;1.10;;;;;;;;;;5089920;28;20015;-82
2023/08/06 10:43:29;;;;;;;3.80;1.27;;;;;;;;;;5084964;28;20031;-82
2023/08/06 10:45:55;;;;;;;3.35;0.73;;;;;;;;;;5108614;28;20485;-83
2023/08/06 10:48:30;;;;;;;6.57;0.80;;;;;;;;;;5095166;28;20500;-83
2023/08/06 10:50:56;;;;;;;1.88;0.60;;;;;;;;;;5075927;28;20096;-83
2023/08/06 10:53:21;;;;;;;4.03;0.80;;;;;;;;;;5093299;28;20028;-83
2023/08/06 10:55:50;;;;;;;4.88;1.00;;;;;;;;;;5073407;28;20052;-83
2023/08/06 10:58:16;;;;;;;0.90;0.45;;;;;;;;;;5108300;28;20459;-83
2023/08/06 11:00:41;;;;;;;2.03;0.60;;;;;;;;;;5085103;28;20024;-83
2023/08/06 11:03:07;;;;;;;5.72;0.90;;;;;;;;;;5082223;28;20024;-83
2023/08/06 11:05:32;;;;;;;3.53;0.70;;;;;;;;;;5081969;28;20081;-83
2023/08/06 11:07:58;;;;;;;3.65;0.50;;;;;;;;;;5092347;28;20122;-83
2023/08/06 11:10:23;;;;;;;5.45;0.70;;;;;;;;;;5095321;28;20030;-83
2023/08/06 11:12:48;;;;;;;6.00;0.60;;;;;;;;;;5086346;28;20036;-83
2023/08/06 11:15:14;;;;;;;1.55;0.60;;;;;;;;;;5082407;28;20031;-83
2023/08/06 11:17:43;;;;;;;3.28;0.70;;;;;;;;;;5081591;28;20041;-83
2023/08/06 11:20:08;;;;;;;3.15;0.90;;;;;;;;;;5086101;28;20404;-82
2023/08/06 11:22:35;;;;;;;5.53;0.65;;;;;;;;;;5089106;28;20073;-83
2023/08/06 11:25:00;;;;;;;5.20;0.80;;;;;;;;;;5086369;28;20737;-83
2023/08/06 11:27:26;;;;;;;5.90;1.20;;;;;;;;;;5094675;28;20019;-83
2023/08/06 11:29:52;;;;;;;5.05;0.70;;;;;;;;;;5070913;28;20378;-83
2023/08/06 11:32:17;;;;;;;8.15;0.80;;;;;;;;;;5069097;28;20118;-83
2023/08/06 11:34:43;;;;;;;5.55;0.82;;;;;;;;;;5083021;28;20077;-83
2023/08/06 11:37:11;;;;;;;7.90;1.30;;;;;;;;;;5075573;28;20016;-83
2023/08/06 11:39:37;;;;;;;4.80;0.95;;;;;;;;;;5072966;28;20028;-83
2023/08/06 11:42:03;;;;;;;5.88;0.82;;;;;;;;;;5086155;28;20065;-83
2023/08/06 11:44:33;;;;;;;5.00;0.98;;;;;;;;;;5107912;28;20040;-83
2023/08/06 11:47:02;;;;;;;5.38;0.60;;;;;;;;;;5081919;28;20016;-83
2023/08/06 11:49:41;;;;;;;4.22;0.60;;;;;;;;;;5083344;28;20085;-83
2023/08/06 11:52:08;;;;;;;3.53;0.45;;;;;;;;;;5064696;28;20024;-83
2023/08/06 11:54:39;;;;;;;2.15;0.65;;;;;;;;;;5088410;28;20023;-82
2023/08/06 11:57:05;;;;;;;3.80;1.10;;;;;;;;;;5080715;28;20443;-83
2023/08/06 11:59:31;;;;;;;2.40;0.85;;;;;;;;;;5092250;28;20405;-82
2023/08/06 12:02:07;;;;;;;4.55;0.80;;;;;;;;;;5076008;28;20011;-82
2023/08/06 12:04:52;;;;;;;4.95;0.73;;;;;;;;;;5077076;28;20039;-82
2023/08/06 12:07:18;;;;;;;3.92;0.93;;;;;;;;;;5087240;28;20027;-83
2023/08/06 12:09:43;;;;;;;3.53;0.70;;;;;;;;;;5064351;28;20028;-83
2023/08/06 12:12:11;;;;;;;5.35;1.15;;;;;;;;;;5058248;28;20790;-81
2023/08/06 12:14:37;;;;;;;3.72;0.75;;;;;;;;;;5066396;28;20451;-84
2023/08/06 12:17:02;;;;;;;5.28;0.60;;;;;;;;;;5082233;28;20063;-83
2023/08/06 12:19:27;;;;;;;5.45;0.70;;;;;;;;;;5062307;28;20027;-82
2023/08/06 12:21:53;;;;;;;6.40;0.90;;;;;;;;;;5071786;28;20028;-83
2023/08/06 12:24:18;;;;;;;3.92;0.73;;;;;;;;;;5085257;28;20027;-83
2023/08/06 12:26:43;;;;;;;3.50;0.68;;;;;;;;;;5077375;28;20482;-83
2023/08/06 12:29:08;;;;;;;2.38;0.57;;;;;;;;;;5072932;28;20028;-83
2023/08/06 12:31:34;;;;;;;0.98;0.50;;;;;;;;;;5071634;28;20077;-83
2023/08/06 12:34:00;;;;;;;5.72;0.68;;;;;;;;;;5070079;28;20106;-83
2023/08/06 12:36:25;;;;;;;1.75;0.52;;;;;;;;;;5067532;28;20504;-83
2023/08/06 12:38:50;;;;;;;4.03;0.70;;;;;;;;;;5080211;28;20022;-82
2023/08/06 12:41:16;;;;;;;3.38;0.35;;;;;;;;;;5068083;28;20352;-83
2023/08/06 12:43:41;;;;;;;3.75;0.50;;;;;;;;;;5080166;28;20356;-82
2023/08/06 12:46:06;;;;;;;4.40;0.65;;;;;;;;;;5060522;28;20435;-82
2023/08/06 12:48:32;;;;;;;4.38;0.93;;;;;;;;;;5082223;28;20034;-82
2023/08/06 12:50:57;;;;;;;3.05;1.15;;;;;;;;;;5089999;28;20455;-82
2023/08/06 12:53:23;;;;;;;6.05;0.93;;;;;;;;;;5070597;28;20131;-83
2023/08/06 12:55:48;;;;;;;4.93;0.73;;;;;;;;;;5082581;28;20043;-84
2023/08/06 12:58:14;;;;;;;3.45;0.68;;;;;;;;;;5072447;28;20027;-83
2023/08/06 13:00:39;;;;;;;4.63;0.73;;;;;;;;;;5080598;28;20038;-84
2023/08/06 13:03:07;;;;;;;3.67;0.80;;;;;;;;;;5105793;28;20080;-84
2023/08/06 13:05:33;;;;;;;4.20;0.70;;;;;;;;;;5091872;28;20015;-83
2023/08/06 13:07:58;;;;;;;6.60;1.33;;;;;;;;;;5086638;28;20459;-83
2023/08/06 13:10:28;;;;;;;5.57;0.98;;;;;;;;;;5092476;28;20023;-83
2023/08/06 13:12:54;;;;;;;4.72;0.98;;;;;;;;;;5084755;28;20451;-83
2023/08/06 13:15:20;;;;;;;4.68;0.77;;;;;;;;;;5089726;28;20044;-82
2023/08/06 13:17:46;;;;;;;5.80;0.77;;;;;;;;;;5085383;28;20104;-83
2023/08/06 13:20:11;;;;;;;4.32;0.60;;;;;;;;;;5081597;28;20078;-83
2023/08/06 13:22:37;;;;;;;5.35;0.80;;;;;;;;;;5081453;28;20039;-83
2023/08/06 13:25:02;;;;;;;7.47;0.93;;;;;;;;;;5072837;28;20032;-83
2023/08/06 13:27:28;;;;;;;2.08;0.45;;;;;;;;;;5075305;28;20355;-83
2023/08/06 13:29:53;;;;;;;4.72;0.80;;;;;;;;;;5073430;28;20443;-81
2023/08/06 13:32:18;;;;;;;2.63;0.43;;;;;;;;;;5075854;28;20485;-84
2023/08/06 13:34:44;;;;;;;2.05;0.50;;;;;;;;;;5078925;28;20078;-83
2023/08/06 13:37:10;;;;;;;5.22;0.65;;;;;;;;;;5082249;28;20020;-84
2023/08/06 13:39:36;;;;;;;3.80;0.40;;;;;;;;;;5070597;28;20096;-83
2023/08/06 13:42:01;;;;;;;1.70;0.73;;;;;;;;;;5077520;28;20043;-83
2023/08/06 13:44:29;;;;;;;1.10;0.40;;;;;;;;;;5094010;28;20066;-85
2023/08/06 13:46:54;;;;;;;3.35;0.70;;;;;;;;;;5065764;28;20024;-84
2023/08/06 13:49:19;;;;;;;1.92;0.63;;;;;;;;;;5078086;28;20371;-84
2023/08/06 13:51:47;;;;;;;4.72;0.70;;;;;;;;;;5092754;28;20031;-84
2023/08/06 13:54:12;;;;;;;1.80;0.50;;;;;;;;;;5077003;28;20112;-84
2023/08/06 13:56:37;;;;;;;1.27;0.43;;;;;;;;;;5092482;28;20023;-84
2023/08/06 13:59:05;;;;;;;3.20;0.50;;;;;;;;;;5090779;28;20451;-83
2023/08/06 14:01:30;;;;;;;1.65;0.40;;;;;;;;;;5090232;28;20054;-83
2023/08/06 14:03:56;;;;;;;1.15;0.40;;;;;;;;;;5078554;28;20027;-83
2023/08/06 14:06:21;;;;;;;0.90;0.20;;;;;;;;;;5075845;28;20040;-83
2023/08/06 14:08:46;;;;;;;1.30;0.38;;;;;;;;;;5092525;28;20114;-83
2023/08/06 14:11:11;;;;;;;2.78;0.47;;;;;;;;;;5077560;28;20374;-84
2023/08/06 14:13:37;;;;;;;0.30;0.20;;;;;;;;;;5078432;28;20112;-83
2023/08/06 14:16:02;;;;;;;1.25;0.57;;;;;;;;;;5080617;28;20471;-83
2023/08/06 14:18:27;;;;;;;3.15;0.45;;;;;;;;;;5076770;28;20031;-83
2023/08/06 14:20:53;;;;;;;1.98;0.28;;;;;;;;;;5083687;28;20411;-83
2023/08/06 14:23:18;;;;;;;0.65;0.22;;;;;;;;;;5087473;28;20107;-84
2023/08/06 14:25:44;;;;;;;1.83;0.57;;;;;;;;;;5079586;28;20024;-83
2023/08/06 14:28:09;;;;;;;5.57;0.38;;;;;;;;;;5077816;28;20036;-82
2023/08/06 14:30:34;;;;;;;6.95;1.00;;;;;;;;;;5095496;28;20182;-83
2023/08/06 14:33:03;;;;;;;1.48;0.40;;;;;;;;;;5096442;28;20102;-83
2023/08/06 14:35:28;;;;;;;3.08;0.25;;;;;;;;;;5087909;28;20019;-82
2023/08/06 14:37:54;;;;;;;4.75;0.68;;;;;;;;;;5079486;28;20035;-83